Archival Weather

Chicago O'Hare International

Chicago, Illinois (KORD)

Report from: Tuesday, February 27, 2024 8:44 PM CST
Current time: Wednesday, May 29, 2024 6:28 PM CDT

Current weather – Weather history – Daily summaries
Weather forecast

Temperature12.2°C (54.0°F)
Dew point10.6°C (51.1°F)
Winds 6 kts (3.1 m/s, 6.9 mph) East (100°)
Visibility10 mi. (16.1 km)
Clouds Few clouds 4,000 ft. (1,219 m)
Scattered clouds 8,500 ft. (2,591 m)
Ceiling: Broken clouds 15,000 ft. (4,572 m)
Broken clouds 25,000 ft. (7,620 m)
Altimeter29.22 in.Hg (990 mB)
Precipitiation0.45 in. (11 mm)
Precip. events Rain ended 2:34 AM
Thunderstorm ended 2:41 AM
Hail began 1:57 AM
Hail ended 2:08 AM
Relative humidity90 %
Density altitude660 ft. (201 m)
Remarks System requires maintenance
Automated weather observing station with precipitation discriminator
Lightning observed
Lightning observed: cloud to ground, intra cloud, cloud to cloud
Distant northeast south continuous distant northeast southeast cumulonimbus clouds observed distant northeast southeast moving east
Flight conditions Visual Meteorological Conditions
Raw dataKORD 280244Z 10006KT 10SM FEW040 SCT085 BKN150 BKN250 12/11 A2922 RMK AO2 LTG DSNT NE-S RAE34TSE41GRB0157E08 CONS LTGCGICCC DSNT NE-SE CB DSNT NE-SE MOV E P0045 T01220106 $
An error has occurred. This application may no longer respond until reloaded. Reload 🗙